Wrangell Airport
PAWG : rendu visible

Aérodrome :











RETROUVEZ-NOUS SUR...

 
LOGIN :

S'inscrire | Disclaimer

   EN    FR    IT 

 









Légende :    VFR   VFR Marginal   IFR   IFR Intensif   IFR Très Intensif
Visi : 
Plafond : 
>= 8 km
>= 3000ft
5 à 8 km
1000 à 3000 ft
1500m à 5 km
500 à 1000 ft
800 à 1500m
200 à 500 ft
< 800m
< 200 ft
Symboles :   Orages  Brouillard  Fortes neiges  Fortes précipitations  Vent > 20 kt






- Altitude de l'aérodrome : 49 ft
- Code IATA : WRG


PAWG - Wrangell

DERNIER METAR :
  • 171756Z VRB05KT 10SM -RA FEW022 BKN035 OVC045 09/07 A2950

METARs EXPIRÉS :
  • 171656Z 19007G15KT 160V220 10SM -RA BKN025 OVC030 09/07 A2945 RMK AO2 SLP973 P0005 T00940072
  • 171625Z 18009G15KT 10SM -RA BKN030 OVC038 09/07 A2942 RMK AO2 P0002
  • 171616Z 18011KT 10SM -RA BKN029 BKN034 OVC041 09/07 A2942 RMK AO2 P0001
  • 171556Z 17011G17KT 10SM RA SCT029 SCT034 OVC047 09/08 A2940 RMK AO2 RAE09B47 SLP955 P0005 T00940078
  • 171456Z VRB06KT 10SM -RA BKN036 OVC060 09/08 A2936 RMK AO2 RAE1358B23 SLP943 P0005 60015 T00940078 51024

TAF PAWG
Valide du 17 à 18h jusqu'au 18 à 18h UTC


171740Z 1718/1818 19006G15KT P6SM -SHRA SCT015 OVC025
FM172000 23010G15KT 5SM -SHRA BR OVC025
FM172300 21010KT P6SM -SHRA SCT025 OVC035 AMD LTD TO CLD VIS AND WIND 1806/1815



MET'MAP, la Météo Aéronautique d'un coup d'oeil ! - Copyright ORBIFLY Décembre 2007 - Disclaimer

ORBIFLY MET'MAP TEAM :

Programmation & Développement : Alexandra Zaïnal
Conception & Développement : Baudouin d'Aumeries
Co-Programmation & Développement : Marc-Olivier Méhu
Soutien technique & logistique : Manuel Goepfert

Contact : metmap@orbifly.com




SOURCES & CREDITS :

   NOAA       Earth
Advisory